sensor_id;sensor_type;location;lat;lon;timestamp;temperature;humidity
40638;DHT22;26336;44.696;10.622;2022-12-18T00:02:47;8.30;99.90
40638;DHT22;26336;44.696;10.622;2022-12-18T00:05:52;8.30;99.90
40638;DHT22;26336;44.696;10.622;2022-12-18T00:08:57;8.30;99.90
40638;DHT22;26336;44.696;10.622;2022-12-18T00:12:01;8.40;99.90
40638;DHT22;26336;44.696;10.622;2022-12-18T00:15:05;8.40;99.90
40638;DHT22;26336;44.696;10.622;2022-12-18T00:18:10;8.50;99.90
40638;DHT22;26336;44.696;10.622;2022-12-18T00:21:14;8.50;99.90
40638;DHT22;26336;44.696;10.622;2022-12-18T00:24:18;8.60;99.90
40638;DHT22;26336;44.696;10.622;2022-12-18T00:27:22;8.60;99.90
40638;DHT22;26336;44.696;10.622;2022-12-18T00:30:26;8.60;99.90
40638;DHT22;26336;44.696;10.622;2022-12-18T00:33:30;8.60;99.90
40638;DHT22;26336;44.696;10.622;2022-12-18T00:36:35;8.60;99.90
40638;DHT22;26336;44.696;10.622;2022-12-18T00:39:40;8.60;99.90
40638;DHT22;26336;44.696;10.622;2022-12-18T00:43:02;8.60;99.90
40638;DHT22;26336;44.696;10.622;2022-12-18T00:46:06;8.50;99.90
40638;DHT22;26336;44.696;10.622;2022-12-18T00:49:10;8.50;99.90
40638;DHT22;26336;44.696;10.622;2022-12-18T00:52:14;8.50;99.90
40638;DHT22;26336;44.696;10.622;2022-12-18T00:55:18;8.50;99.90
40638;DHT22;26336;44.696;10.622;2022-12-18T00:58:24;8.50;99.90
40638;DHT22;26336;44.696;10.622;2022-12-18T01:01:27;8.50;99.90
40638;DHT22;26336;44.696;10.622;2022-12-18T01:04:32;8.50;99.90
40638;DHT22;26336;44.696;10.622;2022-12-18T01:07:38;8.50;99.90
40638;DHT22;26336;44.696;10.622;2022-12-18T01:10:42;8.50;99.90
40638;DHT22;26336;44.696;10.622;2022-12-18T01:13:46;8.50;99.90
40638;DHT22;26336;44.696;10.622;2022-12-18T01:16:50;8.50;99.90
40638;DHT22;26336;44.696;10.622;2022-12-18T01:19:54;8.50;99.90
40638;DHT22;26336;44.696;10.622;2022-12-18T01:22:58;8.50;99.90
40638;DHT22;26336;44.696;10.622;2022-12-18T01:26:13;8.50;99.90
40638;DHT22;26336;44.696;10.622;2022-12-18T01:29:18;8.50;99.90
40638;DHT22;26336;44.696;10.622;2022-12-18T01:32:22;8.40;99.90
40638;DHT22;26336;44.696;10.622;2022-12-18T01:35:27;8.50;99.90
40638;DHT22;26336;44.696;10.622;2022-12-18T01:38:31;8.30;99.90
40638;DHT22;26336;44.696;10.622;2022-12-18T01:41:36;8.10;99.90
40638;DHT22;26336;44.696;10.622;2022-12-18T01:48:15;7.60;99.90
40638;DHT22;26336;44.696;10.622;2022-12-18T01:51:20;7.70;99.90
40638;DHT22;26336;44.696;10.622;2022-12-18T01:54:24;7.70;99.90
40638;DHT22;26336;44.696;10.622;2022-12-18T01:57:34;7.70;99.90
40638;DHT22;26336;44.696;10.622;2022-12-18T02:00:39;7.70;99.90
40638;DHT22;26336;44.696;10.622;2022-12-18T02:03:43;7.60;99.90
40638;DHT22;26336;44.696;10.622;2022-12-18T02:10:30;7.40;99.90
40638;DHT22;26336;44.696;10.622;2022-12-18T02:17:09;7.50;99.90
40638;DHT22;26336;44.696;10.622;2022-12-18T02:20:49;7.50;99.90
40638;DHT22;26336;44.696;10.622;2022-12-18T02:27:07;7.80;99.90
40638;DHT22;26336;44.696;10.622;2022-12-18T02:30:17;7.80;99.90
40638;DHT22;26336;44.696;10.622;2022-12-18T02:33:23;7.60;99.90
40638;DHT22;26336;44.696;10.622;2022-12-18T02:36:28;7.40;99.90
40638;DHT22;26336;44.696;10.622;2022-12-18T02:39:38;7.40;99.90
40638;DHT22;26336;44.696;10.622;2022-12-18T02:42:42;7.20;99.90
40638;DHT22;26336;44.696;10.622;2022-12-18T02:45:59;7.10;99.90
40638;DHT22;26336;44.696;10.622;2022-12-18T02:56:06;6.90;99.90
40638;DHT22;26336;44.696;10.622;2022-12-18T02:59:19;6.90;99.90
40638;DHT22;26336;44.696;10.622;2022-12-18T03:02:39;6.90;99.90
40638;DHT22;26336;44.696;10.622;2022-12-18T03:05:52;6.80;99.90
40638;DHT22;26336;44.696;10.622;2022-12-18T03:09:00;6.80;99.90
40638;DHT22;26336;44.696;10.622;2022-12-18T03:12:17;6.80;99.90
40638;DHT22;26336;44.696;10.622;2022-12-18T03:15:47;7.00;99.90
40638;DHT22;26336;44.696;10.622;2022-12-18T03:18:57;7.00;99.90
40638;DHT22;26336;44.696;10.622;2022-12-18T03:22:04;7.10;99.90
40638;DHT22;26336;44.696;10.622;2022-12-18T03:25:18;6.90;99.90
40638;DHT22;26336;44.696;10.622;2022-12-18T03:28:23;6.80;99.90
40638;DHT22;26336;44.696;10.622;2022-12-18T03:31:35;6.70;99.90
40638;DHT22;26336;44.696;10.622;2022-12-18T03:34:42;6.60;99.90
40638;DHT22;26336;44.696;10.622;2022-12-18T03:37:50;6.60;99.90
40638;DHT22;26336;44.696;10.622;2022-12-18T03:47:44;6.60;99.90
40638;DHT22;26336;44.696;10.622;2022-12-18T03:50:59;6.70;99.90
40638;DHT22;26336;44.696;10.622;2022-12-18T03:54:06;6.60;99.90
40638;DHT22;26336;44.696;10.622;2022-12-18T03:57:23;6.70;99.90
40638;DHT22;26336;44.696;10.622;2022-12-18T04:00:31;6.70;99.90
40638;DHT22;26336;44.696;10.622;2022-12-18T04:03:44;6.60;99.90
40638;DHT22;26336;44.696;10.622;2022-12-18T04:06:51;6.50;99.90
40638;DHT22;26336;44.696;10.622;2022-12-18T04:09:58;6.50;99.90
40638;DHT22;26336;44.696;10.622;2022-12-18T04:13:04;6.50;99.90
40638;DHT22;26336;44.696;10.622;2022-12-18T04:16:08;6.70;99.90
40638;DHT22;26336;44.696;10.622;2022-12-18T04:19:16;6.80;99.90
40638;DHT22;26336;44.696;10.622;2022-12-18T04:22:21;7.00;99.90
40638;DHT22;26336;44.696;10.622;2022-12-18T04:25:31;7.10;99.90
40638;DHT22;26336;44.696;10.622;2022-12-18T04:28:44;7.10;99.90
40638;DHT22;26336;44.696;10.622;2022-12-18T04:31:49;7.20;99.90
40638;DHT22;26336;44.696;10.622;2022-12-18T04:34:54;7.10;99.90
40638;DHT22;26336;44.696;10.622;2022-12-18T04:37:58;7.20;99.90
40638;DHT22;26336;44.696;10.622;2022-12-18T04:41:04;7.20;99.90
40638;DHT22;26336;44.696;10.622;2022-12-18T04:44:08;7.20;99.90
40638;DHT22;26336;44.696;10.622;2022-12-18T04:47:12;7.20;99.90
40638;DHT22;26336;44.696;10.622;2022-12-18T04:50:16;7.30;99.90
40638;DHT22;26336;44.696;10.622;2022-12-18T04:53:23;7.30;99.90
40638;DHT22;26336;44.696;10.622;2022-12-18T04:56:27;7.30;99.90
40638;DHT22;26336;44.696;10.622;2022-12-18T04:59:31;7.40;99.90
40638;DHT22;26336;44.696;10.622;2022-12-18T05:02:35;7.30;99.90
40638;DHT22;26336;44.696;10.622;2022-12-18T05:05:39;7.30;99.90
40638;DHT22;26336;44.696;10.622;2022-12-18T05:08:43;7.40;99.90
40638;DHT22;26336;44.696;10.622;2022-12-18T05:11:47;7.30;99.90
40638;DHT22;26336;44.696;10.622;2022-12-18T05:14:51;7.30;99.90
40638;DHT22;26336;44.696;10.622;2022-12-18T05:17:55;7.30;99.90
40638;DHT22;26336;44.696;10.622;2022-12-18T05:20:59;7.20;99.90
40638;DHT22;26336;44.696;10.622;2022-12-18T05:24:03;7.10;99.90
40638;DHT22;26336;44.696;10.622;2022-12-18T05:27:07;7.10;99.90
40638;DHT22;26336;44.696;10.622;2022-12-18T05:30:12;7.00;99.90
40638;DHT22;26336;44.696;10.622;2022-12-18T05:33:18;7.00;99.90
40638;DHT22;26336;44.696;10.622;2022-12-18T05:36:22;7.00;99.90
40638;DHT22;26336;44.696;10.622;2022-12-18T05:39:26;7.00;99.90
40638;DHT22;26336;44.696;10.622;2022-12-18T05:42:30;7.00;99.90
40638;DHT22;26336;44.696;10.622;2022-12-18T05:45:39;7.00;99.90
40638;DHT22;26336;44.696;10.622;2022-12-18T05:48:44;7.00;99.90
40638;DHT22;26336;44.696;10.622;2022-12-18T05:51:48;7.00;99.90
40638;DHT22;26336;44.696;10.622;2022-12-18T05:54:52;7.00;99.90
40638;DHT22;26336;44.696;10.622;2022-12-18T05:57:56;7.00;99.90
40638;DHT22;26336;44.696;10.622;2022-12-18T06:01:12;7.00;99.90
40638;DHT22;26336;44.696;10.622;2022-12-18T06:04:17;7.00;99.90
40638;DHT22;26336;44.696;10.622;2022-12-18T06:07:21;7.00;99.90
40638;DHT22;26336;44.696;10.622;2022-12-18T06:10:25;7.00;99.90
40638;DHT22;26336;44.696;10.622;2022-12-18T06:13:29;7.00;99.90
40638;DHT22;26336;44.696;10.622;2022-12-18T06:16:33;7.00;99.90
40638;DHT22;26336;44.696;10.622;2022-12-18T06:19:37;7.00;99.90
40638;DHT22;26336;44.696;10.622;2022-12-18T06:22:41;6.90;99.90
40638;DHT22;26336;44.696;10.622;2022-12-18T06:25:45;6.90;99.90
40638;DHT22;26336;44.696;10.622;2022-12-18T06:28:49;6.90;99.90
40638;DHT22;26336;44.696;10.622;2022-12-18T06:31:53;6.90;99.90
40638;DHT22;26336;44.696;10.622;2022-12-18T06:34:56;6.90;99.90
40638;DHT22;26336;44.696;10.622;2022-12-18T06:38:01;6.90;99.90
40638;DHT22;26336;44.696;10.622;2022-12-18T06:41:14;6.90;99.90
40638;DHT22;26336;44.696;10.622;2022-12-18T06:44:18;6.90;99.90
40638;DHT22;26336;44.696;10.622;2022-12-18T06:47:22;6.90;99.90
40638;DHT22;26336;44.696;10.622;2022-12-18T06:50:26;6.90;99.90
40638;DHT22;26336;44.696;10.622;2022-12-18T06:53:31;6.90;99.90
40638;DHT22;26336;44.696;10.622;2022-12-18T06:56:35;6.90;99.90
40638;DHT22;26336;44.696;10.622;2022-12-18T06:59:40;6.90;99.90
40638;DHT22;26336;44.696;10.622;2022-12-18T07:02:43;6.90;99.90
40638;DHT22;26336;44.696;10.622;2022-12-18T07:05:47;6.90;99.90
40638;DHT22;26336;44.696;10.622;2022-12-18T07:08:53;6.90;99.90
40638;DHT22;26336;44.696;10.622;2022-12-18T07:11:57;6.90;99.90
40638;DHT22;26336;44.696;10.622;2022-12-18T07:15:01;6.90;99.90
40638;DHT22;26336;44.696;10.622;2022-12-18T07:18:05;6.90;99.90
40638;DHT22;26336;44.696;10.622;2022-12-18T07:21:12;6.90;99.90
40638;DHT22;26336;44.696;10.622;2022-12-18T07:24:17;6.90;99.90
40638;DHT22;26336;44.696;10.622;2022-12-18T07:27:21;6.90;99.90
40638;DHT22;26336;44.696;10.622;2022-12-18T07:30:25;6.90;99.90
40638;DHT22;26336;44.696;10.622;2022-12-18T07:33:29;6.80;99.90
40638;DHT22;26336;44.696;10.622;2022-12-18T07:36:33;6.80;99.90
40638;DHT22;26336;44.696;10.622;2022-12-18T07:39:37;6.80;99.90
40638;DHT22;26336;44.696;10.622;2022-12-18T07:42:41;6.80;99.90
40638;DHT22;26336;44.696;10.622;2022-12-18T07:45:45;6.70;99.90
40638;DHT22;26336;44.696;10.622;2022-12-18T07:48:48;6.70;99.90
40638;DHT22;26336;44.696;10.622;2022-12-18T07:51:55;6.60;99.90
40638;DHT22;26336;44.696;10.622;2022-12-18T07:54:59;6.60;99.90
40638;DHT22;26336;44.696;10.622;2022-12-18T07:58:04;6.60;99.90
40638;DHT22;26336;44.696;10.622;2022-12-18T08:01:10;6.60;99.90
40638;DHT22;26336;44.696;10.622;2022-12-18T08:04:14;6.60;99.90
40638;DHT22;26336;44.696;10.622;2022-12-18T08:07:18;6.50;99.90
40638;DHT22;26336;44.696;10.622;2022-12-18T08:10:22;6.60;99.90
40638;DHT22;26336;44.696;10.622;2022-12-18T08:13:27;6.50;99.90
40638;DHT22;26336;44.696;10.622;2022-12-18T08:16:31;6.50;99.90
40638;DHT22;26336;44.696;10.622;2022-12-18T08:19:35;6.50;99.90
40638;DHT22;26336;44.696;10.622;2022-12-18T08:22:39;6.50;99.90
40638;DHT22;26336;44.696;10.622;2022-12-18T08:25:43;6.40;99.90
40638;DHT22;26336;44.696;10.622;2022-12-18T08:28:48;6.40;99.90
40638;DHT22;26336;44.696;10.622;2022-12-18T08:31:52;6.50;99.90
40638;DHT22;26336;44.696;10.622;2022-12-18T08:34:56;6.50;99.90
40638;DHT22;26336;44.696;10.622;2022-12-18T08:38:00;6.50;99.90
40638;DHT22;26336;44.696;10.622;2022-12-18T08:41:07;6.40;99.90
40638;DHT22;26336;44.696;10.622;2022-12-18T08:44:11;6.40;99.90
40638;DHT22;26336;44.696;10.622;2022-12-18T08:47:33;6.40;99.90
40638;DHT22;26336;44.696;10.622;2022-12-18T08:50:37;6.40;99.90
40638;DHT22;26336;44.696;10.622;2022-12-18T08:53:42;6.50;99.90
40638;DHT22;26336;44.696;10.622;2022-12-18T08:56:46;6.50;99.90
40638;DHT22;26336;44.696;10.622;2022-12-18T08:59:50;6.50;99.90
40638;DHT22;26336;44.696;10.622;2022-12-18T09:02:54;6.50;99.90
40638;DHT22;26336;44.696;10.622;2022-12-18T09:05:58;6.50;99.90
40638;DHT22;26336;44.696;10.622;2022-12-18T09:09:04;6.50;99.90
40638;DHT22;26336;44.696;10.622;2022-12-18T09:12:08;6.50;99.90
40638;DHT22;26336;44.696;10.622;2022-12-18T09:15:12;6.60;99.90
40638;DHT22;26336;44.696;10.622;2022-12-18T09:18:17;6.50;99.90
40638;DHT22;26336;44.696;10.622;2022-12-18T09:21:22;6.60;99.90
40638;DHT22;26336;44.696;10.622;2022-12-18T09:24:26;6.60;99.90
40638;DHT22;26336;44.696;10.622;2022-12-18T09:27:29;6.50;99.90
40638;DHT22;26336;44.696;10.622;2022-12-18T09:30:33;6.60;99.90
40638;DHT22;26336;44.696;10.622;2022-12-18T09:33:40;6.60;99.90
40638;DHT22;26336;44.696;10.622;2022-12-18T09:36:44;6.60;99.90
40638;DHT22;26336;44.696;10.622;2022-12-18T09:39:48;6.60;99.90
40638;DHT22;26336;44.696;10.622;2022-12-18T09:42:57;6.60;99.90
40638;DHT22;26336;44.696;10.622;2022-12-18T09:46:06;6.70;99.90
40638;DHT22;26336;44.696;10.622;2022-12-18T09:49:14;6.60;99.90
40638;DHT22;26336;44.696;10.622;2022-12-18T09:52:40;6.70;99.90
40638;DHT22;26336;44.696;10.622;2022-12-18T09:55:46;6.70;99.90
40638;DHT22;26336;44.696;10.622;2022-12-18T09:58:59;6.80;99.90
40638;DHT22;26336;44.696;10.622;2022-12-18T10:02:22;6.80;99.90
40638;DHT22;26336;44.696;10.622;2022-12-18T10:08:54;6.80;99.90
40638;DHT22;26336;44.696;10.622;2022-12-18T10:15:45;6.90;99.90
40638;DHT22;26336;44.696;10.622;2022-12-18T10:19:39;6.90;99.90
40638;DHT22;26336;44.696;10.622;2022-12-18T10:26:11;6.90;99.90
40638;DHT22;26336;44.696;10.622;2022-12-18T10:29:16;7.00;99.90
40638;DHT22;26336;44.696;10.622;2022-12-18T10:32:24;7.00;99.90
40638;DHT22;26336;44.696;10.622;2022-12-18T10:35:28;7.10;99.90
40638;DHT22;26336;44.696;10.622;2022-12-18T10:38:33;7.20;99.90
40638;DHT22;26336;44.696;10.622;2022-12-18T10:41:37;7.20;99.90
40638;DHT22;26336;44.696;10.622;2022-12-18T10:44:41;7.20;99.90
40638;DHT22;26336;44.696;10.622;2022-12-18T10:47:47;7.20;99.90
40638;DHT22;26336;44.696;10.622;2022-12-18T10:50:52;7.20;99.90
40638;DHT22;26336;44.696;10.622;2022-12-18T10:54:00;7.20;99.90
40638;DHT22;26336;44.696;10.622;2022-12-18T11:00:41;7.30;99.90
40638;DHT22;26336;44.696;10.622;2022-12-18T11:07:06;7.40;99.90
40638;DHT22;26336;44.696;10.622;2022-12-18T11:10:16;7.40;99.90
40638;DHT22;26336;44.696;10.622;2022-12-18T11:13:23;7.40;99.90
40638;DHT22;26336;44.696;10.622;2022-12-18T11:16:30;7.40;99.90
40638;DHT22;26336;44.696;10.622;2022-12-18T11:19:39;7.40;99.90
40638;DHT22;26336;44.696;10.622;2022-12-18T11:22:54;7.50;99.90
40638;DHT22;26336;44.696;10.622;2022-12-18T11:26:01;7.50;99.90
40638;DHT22;26336;44.696;10.622;2022-12-18T11:29:15;7.50;99.90
40638;DHT22;26336;44.696;10.622;2022-12-18T11:32:31;7.50;99.90
40638;DHT22;26336;44.696;10.622;2022-12-18T11:35:58;7.60;99.90
40638;DHT22;26336;44.696;10.622;2022-12-18T11:39:20;7.60;99.90
40638;DHT22;26336;44.696;10.622;2022-12-18T11:42:55;7.60;99.90
40638;DHT22;26336;44.696;10.622;2022-12-18T11:46:14;7.60;99.90
40638;DHT22;26336;44.696;10.622;2022-12-18T11:49:39;7.70;99.90
40638;DHT22;26336;44.696;10.622;2022-12-18T11:52:44;7.70;99.90
40638;DHT22;26336;44.696;10.622;2022-12-18T12:13:10;8.00;99.90
40638;DHT22;26336;44.696;10.622;2022-12-18T12:16:23;8.10;99.90
40638;DHT22;26336;44.696;10.622;2022-12-18T12:22:55;8.10;99.90
40638;DHT22;26336;44.696;10.622;2022-12-18T12:26:07;8.10;99.90
40638;DHT22;26336;44.696;10.622;2022-12-18T12:39:40;8.20;99.90
40638;DHT22;26336;44.696;10.622;2022-12-18T12:42:55;8.20;99.90
40638;DHT22;26336;44.696;10.622;2022-12-18T12:46:18;8.30;99.90
40638;DHT22;26336;44.696;10.622;2022-12-18T12:49:26;8.30;99.90
40638;DHT22;26336;44.696;10.622;2022-12-18T12:52:41;8.30;99.90
40638;DHT22;26336;44.696;10.622;2022-12-18T12:55:46;8.30;99.90
40638;DHT22;26336;44.696;10.622;2022-12-18T13:02:48;8.30;99.90
40638;DHT22;26336;44.696;10.622;2022-12-18T13:06:01;8.20;99.90
40638;DHT22;26336;44.696;10.622;2022-12-18T13:09:07;8.20;99.90
40638;DHT22;26336;44.696;10.622;2022-12-18T13:12:11;8.20;99.90
40638;DHT22;26336;44.696;10.622;2022-12-18T13:15:36;8.20;99.90
40638;DHT22;26336;44.696;10.622;2022-12-18T13:18:48;8.10;99.90
40638;DHT22;26336;44.696;10.622;2022-12-18T13:21:54;8.20;99.90
40638;DHT22;26336;44.696;10.622;2022-12-18T13:24:59;8.20;99.90
40638;DHT22;26336;44.696;10.622;2022-12-18T13:28:16;8.20;99.90
40638;DHT22;26336;44.696;10.622;2022-12-18T13:34:43;8.30;99.90
40638;DHT22;26336;44.696;10.622;2022-12-18T13:37:52;8.30;99.90
40638;DHT22;26336;44.696;10.622;2022-12-18T13:40:58;8.30;99.90
40638;DHT22;26336;44.696;10.622;2022-12-18T13:47:35;8.30;99.90
40638;DHT22;26336;44.696;10.622;2022-12-18T13:50:40;8.30;99.90
40638;DHT22;26336;44.696;10.622;2022-12-18T13:53:50;8.30;99.90
40638;DHT22;26336;44.696;10.622;2022-12-18T13:56:54;8.40;99.90
40638;DHT22;26336;44.696;10.622;2022-12-18T14:00:28;8.40;99.90
40638;DHT22;26336;44.696;10.622;2022-12-18T14:03:32;8.40;99.90
40638;DHT22;26336;44.696;10.622;2022-12-18T14:06:36;8.40;99.90
40638;DHT22;26336;44.696;10.622;2022-12-18T14:09:46;8.40;99.90
40638;DHT22;26336;44.696;10.622;2022-12-18T14:12:53;8.40;99.90
40638;DHT22;26336;44.696;10.622;2022-12-18T14:16:06;8.30;99.90
40638;DHT22;26336;44.696;10.622;2022-12-18T14:19:15;8.40;99.90
40638;DHT22;26336;44.696;10.622;2022-12-18T14:22:24;8.40;99.90
40638;DHT22;26336;44.696;10.622;2022-12-18T14:25:33;8.40;99.90
40638;DHT22;26336;44.696;10.622;2022-12-18T14:28:43;8.40;99.90
40638;DHT22;26336;44.696;10.622;2022-12-18T14:32:10;8.30;99.90
40638;DHT22;26336;44.696;10.622;2022-12-18T14:35:15;8.30;99.90
40638;DHT22;26336;44.696;10.622;2022-12-18T14:41:28;8.30;99.90
40638;DHT22;26336;44.696;10.622;2022-12-18T14:44:33;8.20;99.90
40638;DHT22;26336;44.696;10.622;2022-12-18T14:47:37;8.20;99.90
40638;DHT22;26336;44.696;10.622;2022-12-18T14:50:41;8.20;99.90
40638;DHT22;26336;44.696;10.622;2022-12-18T14:54:19;8.20;99.90
40638;DHT22;26336;44.696;10.622;2022-12-18T14:57:25;8.10;99.90
40638;DHT22;26336;44.696;10.622;2022-12-18T15:00:30;8.10;99.90
40638;DHT22;26336;44.696;10.622;2022-12-18T15:03:34;8.10;99.90
40638;DHT22;26336;44.696;10.622;2022-12-18T15:06:39;8.10;99.90
40638;DHT22;26336;44.696;10.622;2022-12-18T15:13:24;8.00;99.90
40638;DHT22;26336;44.696;10.622;2022-12-18T15:16:28;8.00;99.90
40638;DHT22;26336;44.696;10.622;2022-12-18T15:19:37;8.00;99.90
40638;DHT22;26336;44.696;10.622;2022-12-18T15:22:42;8.00;99.90
40638;DHT22;26336;44.696;10.622;2022-12-18T15:25:48;8.00;99.90
40638;DHT22;26336;44.696;10.622;2022-12-18T15:28:57;8.00;99.90
40638;DHT22;26336;44.696;10.622;2022-12-18T15:32:05;8.00;99.90
40638;DHT22;26336;44.696;10.622;2022-12-18T15:35:21;8.00;99.90
40638;DHT22;26336;44.696;10.622;2022-12-18T15:38:25;7.90;99.90
40638;DHT22;26336;44.696;10.622;2022-12-18T15:41:32;7.90;99.90
40638;DHT22;26336;44.696;10.622;2022-12-18T15:44:37;7.90;99.90
40638;DHT22;26336;44.696;10.622;2022-12-18T15:47:41;7.80;99.90
40638;DHT22;26336;44.696;10.622;2022-12-18T15:50:46;7.80;99.90
40638;DHT22;26336;44.696;10.622;2022-12-18T15:53:53;7.80;99.90
40638;DHT22;26336;44.696;10.622;2022-12-18T15:56:58;7.70;99.90
40638;DHT22;26336;44.696;10.622;2022-12-18T16:00:20;7.70;99.90
40638;DHT22;26336;44.696;10.622;2022-12-18T16:03:24;7.70;99.90
40638;DHT22;26336;44.696;10.622;2022-12-18T16:06:28;7.70;99.90
40638;DHT22;26336;44.696;10.622;2022-12-18T16:09:31;7.70;99.90
40638;DHT22;26336;44.696;10.622;2022-12-18T16:12:36;7.70;99.90
40638;DHT22;26336;44.696;10.622;2022-12-18T16:15:40;7.60;99.90
40638;DHT22;26336;44.696;10.622;2022-12-18T16:18:44;7.60;99.90
40638;DHT22;26336;44.696;10.622;2022-12-18T16:21:49;7.60;99.90
40638;DHT22;26336;44.696;10.622;2022-12-18T16:24:54;7.60;99.90
40638;DHT22;26336;44.696;10.622;2022-12-18T16:27:59;7.50;99.90
40638;DHT22;26336;44.696;10.622;2022-12-18T16:31:03;7.50;99.90
40638;DHT22;26336;44.696;10.622;2022-12-18T16:34:15;7.50;99.90
40638;DHT22;26336;44.696;10.622;2022-12-18T16:37:21;7.50;99.90
40638;DHT22;26336;44.696;10.622;2022-12-18T16:40:25;7.40;99.90
40638;DHT22;26336;44.696;10.622;2022-12-18T16:43:29;7.40;99.90
40638;DHT22;26336;44.696;10.622;2022-12-18T16:46:33;7.40;99.90
40638;DHT22;26336;44.696;10.622;2022-12-18T16:49:37;7.40;99.90
40638;DHT22;26336;44.696;10.622;2022-12-18T16:52:41;7.30;99.90
40638;DHT22;26336;44.696;10.622;2022-12-18T16:55:54;7.30;99.90
40638;DHT22;26336;44.696;10.622;2022-12-18T16:58:59;7.30;99.90
40638;DHT22;26336;44.696;10.622;2022-12-18T17:02:04;7.20;99.90
40638;DHT22;26336;44.696;10.622;2022-12-18T17:05:08;7.10;99.90
40638;DHT22;26336;44.696;10.622;2022-12-18T17:08:12;7.10;99.90
40638;DHT22;26336;44.696;10.622;2022-12-18T17:11:17;7.00;99.90
40638;DHT22;26336;44.696;10.622;2022-12-18T17:14:23;7.00;99.90
40638;DHT22;26336;44.696;10.622;2022-12-18T17:17:27;6.90;99.90
40638;DHT22;26336;44.696;10.622;2022-12-18T17:20:31;6.80;99.90
40638;DHT22;26336;44.696;10.622;2022-12-18T17:23:36;6.80;99.90
40638;DHT22;26336;44.696;10.622;2022-12-18T17:26:40;6.70;99.90
40638;DHT22;26336;44.696;10.622;2022-12-18T17:29:44;6.80;99.90
40638;DHT22;26336;44.696;10.622;2022-12-18T17:32:48;6.80;99.90
40638;DHT22;26336;44.696;10.622;2022-12-18T17:35:53;6.70;99.90
40638;DHT22;26336;44.696;10.622;2022-12-18T17:38:58;6.70;99.90
40638;DHT22;26336;44.696;10.622;2022-12-18T17:42:03;6.70;99.90
40638;DHT22;26336;44.696;10.622;2022-12-18T17:45:07;6.70;99.90
40638;DHT22;26336;44.696;10.622;2022-12-18T17:48:12;6.70;99.90
40638;DHT22;26336;44.696;10.622;2022-12-18T17:51:17;6.70;99.90
40638;DHT22;26336;44.696;10.622;2022-12-18T17:54:20;6.70;99.90
40638;DHT22;26336;44.696;10.622;2022-12-18T17:57:24;6.70;99.90
40638;DHT22;26336;44.696;10.622;2022-12-18T18:00:28;6.70;99.90
40638;DHT22;26336;44.696;10.622;2022-12-18T18:03:33;6.70;99.90
40638;DHT22;26336;44.696;10.622;2022-12-18T18:06:40;6.70;99.90
40638;DHT22;26336;44.696;10.622;2022-12-18T18:09:44;6.60;99.90
40638;DHT22;26336;44.696;10.622;2022-12-18T18:12:48;6.60;99.90
40638;DHT22;26336;44.696;10.622;2022-12-18T18:16:11;6.50;99.90
40638;DHT22;26336;44.696;10.622;2022-12-18T18:19:22;6.50;99.90
40638;DHT22;26336;44.696;10.622;2022-12-18T18:22:26;6.50;99.90
40638;DHT22;26336;44.696;10.622;2022-12-18T18:25:35;6.40;99.90
40638;DHT22;26336;44.696;10.622;2022-12-18T18:28:41;6.40;99.90
40638;DHT22;26336;44.696;10.622;2022-12-18T18:31:45;6.40;99.90
40638;DHT22;26336;44.696;10.622;2022-12-18T18:34:49;6.40;99.90
40638;DHT22;26336;44.696;10.622;2022-12-18T18:37:53;6.40;99.90
40638;DHT22;26336;44.696;10.622;2022-12-18T18:41:01;6.40;99.90
40638;DHT22;26336;44.696;10.622;2022-12-18T18:44:06;6.40;99.90
40638;DHT22;26336;44.696;10.622;2022-12-18T18:47:09;6.40;99.90
40638;DHT22;26336;44.696;10.622;2022-12-18T18:50:13;6.40;99.90
40638;DHT22;26336;44.696;10.622;2022-12-18T18:53:17;6.40;99.90
40638;DHT22;26336;44.696;10.622;2022-12-18T18:56:23;6.40;99.90
40638;DHT22;26336;44.696;10.622;2022-12-18T18:59:27;6.40;99.90
40638;DHT22;26336;44.696;10.622;2022-12-18T19:02:31;6.40;99.90
40638;DHT22;26336;44.696;10.622;2022-12-18T19:05:35;6.50;99.90
40638;DHT22;26336;44.696;10.622;2022-12-18T19:08:39;6.50;99.90
40638;DHT22;26336;44.696;10.622;2022-12-18T19:11:43;6.50;99.90
40638;DHT22;26336;44.696;10.622;2022-12-18T19:15:06;6.50;99.90
40638;DHT22;26336;44.696;10.622;2022-12-18T19:18:10;6.50;99.90
40638;DHT22;26336;44.696;10.622;2022-12-18T19:21:14;6.60;99.90
40638;DHT22;26336;44.696;10.622;2022-12-18T19:24:18;6.60;99.90
40638;DHT22;26336;44.696;10.622;2022-12-18T19:27:22;6.60;99.90
40638;DHT22;26336;44.696;10.622;2022-12-18T19:30:26;6.60;99.90
40638;DHT22;26336;44.696;10.622;2022-12-18T19:33:36;6.50;99.90
40638;DHT22;26336;44.696;10.622;2022-12-18T19:36:40;6.50;99.90
40638;DHT22;26336;44.696;10.622;2022-12-18T19:39:44;6.60;99.90
40638;DHT22;26336;44.696;10.622;2022-12-18T19:42:48;6.40;99.90
40638;DHT22;26336;44.696;10.622;2022-12-18T19:45:55;6.40;99.90
40638;DHT22;26336;44.696;10.622;2022-12-18T19:49:01;6.50;99.90
40638;DHT22;26336;44.696;10.622;2022-12-18T19:52:05;6.50;99.90
40638;DHT22;26336;44.696;10.622;2022-12-18T19:55:10;6.50;99.90
40638;DHT22;26336;44.696;10.622;2022-12-18T19:58:14;6.60;99.90
40638;DHT22;26336;44.696;10.622;2022-12-18T20:01:20;6.60;99.90
40638;DHT22;26336;44.696;10.622;2022-12-18T20:04:24;6.60;99.90
40638;DHT22;26336;44.696;10.622;2022-12-18T20:07:28;6.60;99.90
40638;DHT22;26336;44.696;10.622;2022-12-18T20:10:32;6.60;99.90
40638;DHT22;26336;44.696;10.622;2022-12-18T20:13:36;6.60;99.90
40638;DHT22;26336;44.696;10.622;2022-12-18T20:16:40;6.70;99.90
40638;DHT22;26336;44.696;10.622;2022-12-18T20:19:44;6.70;99.90
40638;DHT22;26336;44.696;10.622;2022-12-18T20:22:48;6.70;99.90
40638;DHT22;26336;44.696;10.622;2022-12-18T20:25:53;6.60;99.90
40638;DHT22;26336;44.696;10.622;2022-12-18T20:28:57;6.60;99.90
40638;DHT22;26336;44.696;10.622;2022-12-18T20:32:01;6.60;99.90
40638;DHT22;26336;44.696;10.622;2022-12-18T20:35:05;6.60;99.90
40638;DHT22;26336;44.696;10.622;2022-12-18T20:38:09;6.70;99.90
40638;DHT22;26336;44.696;10.622;2022-12-18T20:41:18;6.70;99.90
40638;DHT22;26336;44.696;10.622;2022-12-18T20:44:23;6.70;99.90
40638;DHT22;26336;44.696;10.622;2022-12-18T20:47:27;6.70;99.90
40638;DHT22;26336;44.696;10.622;2022-12-18T20:50:31;6.70;99.90
40638;DHT22;26336;44.696;10.622;2022-12-18T20:53:36;6.70;99.90
40638;DHT22;26336;44.696;10.622;2022-12-18T20:56:40;6.70;99.90
40638;DHT22;26336;44.696;10.622;2022-12-18T20:59:44;6.70;99.90
40638;DHT22;26336;44.696;10.622;2022-12-18T21:02:50;6.70;99.90
40638;DHT22;26336;44.696;10.622;2022-12-18T21:05:53;6.70;99.90
40638;DHT22;26336;44.696;10.622;2022-12-18T21:08:57;6.70;99.90
40638;DHT22;26336;44.696;10.622;2022-12-18T21:12:02;6.70;99.90
40638;DHT22;26336;44.696;10.622;2022-12-18T21:15:24;6.70;99.90